Time;durP1;ratioP1;P1;durP2;ratioP2;P2;SDS_P1;SDS_P2;PMS_P1;PMS_P2;Temp;Humidity;BMP_temperature;BMP_pressure;BME280_temperature;BME280_humidity;BME280_pressure;Samples;Min_cycle;Max_cycle;Signal;HPM_P1;HPM_P2
2023/06/01 00:00:39;;;;;;;6.90;1.87;;;;;;;14.16;77.73;101361.47;5074662;28;20481;-68
2023/06/01 00:05:33;;;;;;;7.73;1.60;;;;;;;13.97;78.91;101360.81;5059837;22;20497;-77
2023/06/01 00:08:00;;;;;;;4.70;0.83;;;;;;;13.99;79.38;101359.41;5055272;28;20229;-76
2023/06/01 00:10:30;;;;;;;4.70;1.10;;;;;;;14.05;78.93;101352.72;5057069;28;20446;-76
2023/06/01 00:12:57;;;;;;;5.97;1.73;;;;;;;14.07;78.86;101346.97;5081839;22;20476;-74
2023/06/01 00:15:23;;;;;;;7.40;1.77;;;;;;;14.00;79.88;101352.03;5034666;28;20459;-73
2023/06/01 00:17:51;;;;;;;6.03;1.63;;;;;;;14.08;79.06;101354.84;5034322;28;20877;-73
2023/06/01 00:20:18;;;;;;;5.30;1.43;;;;;;;14.04;79.43;101355.75;5034589;28;20447;-73
2023/06/01 00:22:46;;;;;;;5.07;1.53;;;;;;;14.00;79.85;101350.13;5034272;28;20895;-73
2023/06/01 00:25:12;;;;;;;5.90;1.23;;;;;;;13.96;80.39;101353.75;5034357;28;20471;-73
2023/06/01 00:27:39;;;;;;;5.23;1.33;;;;;;;13.99;80.30;101353.13;5034482;28;20445;-73
2023/06/01 00:30:07;;;;;;;8.90;1.90;;;;;;;13.97;80.80;101355.34;5034431;28;20467;-72
2023/06/01 00:32:33;;;;;;;5.23;1.30;;;;;;;13.87;81.25;101351.75;5034110;28;20531;-73
2023/06/01 00:35:00;;;;;;;6.50;1.37;;;;;;;13.79;81.36;101352.44;5034241;28;20485;-73
2023/06/01 00:37:28;;;;;;;5.50;1.50;;;;;;;13.82;81.51;101351.84;5033979;28;20959;-73
2023/06/01 00:39:56;;;;;;;5.30;1.23;;;;;;;13.79;81.72;101348.91;5034243;28;20446;-73
2023/06/01 00:42:22;;;;;;;5.20;1.30;;;;;;;13.78;81.34;101350.84;5034196;28;20478;-73
2023/06/01 00:44:49;;;;;;;7.10;1.87;;;;;;;13.71;82.01;101347.72;5034117;28;20468;-73
2023/06/01 00:47:16;;;;;;;5.47;1.20;;;;;;;13.63;82.32;101351.97;5033953;28;20483;-73
2023/06/01 00:49:43;;;;;;;5.73;1.50;;;;;;;13.61;82.08;101353.38;5034051;28;20465;-73
2023/06/01 00:52:11;;;;;;;6.20;1.50;;;;;;;13.56;82.40;101351.56;5033587;28;20450;-73
2023/06/01 00:54:37;;;;;;;13.33;1.57;;;;;;;13.65;82.19;101354.38;5033578;28;20501;-73
2023/06/01 00:57:06;;;;;;;6.30;1.80;;;;;;;13.58;82.20;101352.03;5033942;28;20475;-73
2023/06/01 00:59:34;;;;;;;6.10;1.60;;;;;;;13.37;83.01;101342.69;5033910;28;20450;-73
2023/06/01 01:02:03;;;;;;;6.90;2.00;;;;;;;13.26;83.35;101347.50;5033838;28;20470;-73
2023/06/01 01:04:32;;;;;;;5.20;1.30;;;;;;;13.34;83.29;101337.84;5033725;28;20471;-73
2023/06/01 01:07:08;;;;;;;7.97;1.20;;;;;;;13.37;83.07;101340.75;5033980;28;20482;-73
2023/06/01 01:09:39;;;;;;;6.23;1.30;;;;;;;13.36;82.83;101350.00;5033767;28;20788;-73
2023/06/01 01:12:15;;;;;;;5.10;1.27;;;;;;;13.20;83.96;101350.59;5033707;28;20489;-73
2023/06/01 01:14:50;;;;;;;4.90;1.43;;;;;;;13.19;81.90;101352.47;5033300;28;20478;-73
2023/06/01 01:17:24;;;;;;;6.03;1.70;;;;;;;13.21;80.14;101344.84;5033902;28;20419;-73
2023/06/01 01:19:59;;;;;;;4.90;0.90;;;;;;;13.10;79.97;101348.81;5033299;28;20426;-73
2023/06/01 01:22:44;;;;;;;5.10;1.10;;;;;;;12.96;80.54;101348.00;5033462;28;20854;-72
2023/06/01 01:25:26;;;;;;;6.23;2.00;;;;;;;12.85;81.44;101342.72;5033530;28;20459;-73
2023/06/01 01:28:10;;;;;;;7.63;2.20;;;;;;;12.85;82.05;101342.72;5033210;28;20503;-73
2023/06/01 01:30:42;;;;;;;5.70;1.20;;;;;;;12.80;84.29;101345.53;5033175;28;20459;-72
2023/06/01 01:33:10;;;;;;;6.27;1.80;;;;;;;12.68;86.08;101345.19;5033048;28;20924;-72
2023/06/01 01:35:38;;;;;;;6.40;1.60;;;;;;;12.67;86.64;101342.78;5033362;28;20518;-73
2023/06/01 01:38:05;;;;;;;7.00;1.70;;;;;;;12.77;86.11;101342.59;5033367;28;20435;-73
2023/06/01 01:40:31;;;;;;;5.57;1.33;;;;;;;12.79;86.27;101337.66;5033333;28;20884;-72
2023/06/01 01:42:59;;;;;;;5.47;1.20;;;;;;;12.82;85.66;101347.94;5033243;28;20506;-72
2023/06/01 01:45:26;;;;;;;6.00;1.60;;;;;;;12.84;86.09;101337.59;5033213;28;20498;-73
2023/06/01 01:47:59;;;;;;;5.93;1.60;;;;;;;12.80;86.52;101339.31;5033119;28;20483;-73
2023/06/01 01:50:37;;;;;;;4.97;1.20;;;;;;;12.76;86.76;101332.84;5033244;28;20499;-73
2023/06/01 01:53:07;;;;;;;5.90;1.70;;;;;;;12.81;86.58;101339.00;5032908;28;20415;-72
2023/06/01 01:55:35;;;;;;;7.43;1.50;;;;;;;12.71;87.55;101325.56;5033198;28;20544;-72
2023/06/01 01:58:03;;;;;;;8.83;1.47;;;;;;;12.74;87.28;101330.41;5033132;28;20435;-73
2023/06/01 02:00:31;;;;;;;7.40;1.77;;;;;;;12.77;86.98;101323.56;5032784;28;20451;-73
2023/06/01 02:02:59;;;;;;;6.47;1.40;;;;;;;12.66;88.53;101331.09;5033722;28;20439;-74
2023/06/01 02:05:26;;;;;;;5.93;1.30;;;;;;;12.63;88.82;101328.97;5036773;28;20490;-74
2023/06/01 02:07:52;;;;;;;7.33;2.13;;;;;;;12.71;88.52;101325.56;5037063;28;20561;-74
2023/06/01 02:10:19;;;;;;;15.03;2.37;;;;;;;12.68;88.91;101326.16;5037004;28;20453;-73
2023/06/01 02:12:46;;;;;;;7.30;1.70;;;;;;;12.65;89.81;101320.50;5036870;28;20458;-74
2023/06/01 02:15:12;;;;;;;6.80;1.70;;;;;;;12.63;90.19;101318.91;5036649;28;20999;-74
2023/06/01 02:17:40;;;;;;;6.40;1.67;;;;;;;12.60;90.53;101324.13;5036935;28;20461;-74
2023/06/01 02:20:10;;;;;;;6.33;1.97;;;;;;;12.62;90.85;101333.59;5036845;28;20450;-72
2023/06/01 02:22:37;;;;;;;10.00;1.93;;;;;;;12.56;92.23;101333.97;5036902;28;20441;-73
2023/06/01 02:25:04;;;;;;;16.10;1.50;;;;;;;12.54;92.03;101334.25;5036712;28;20474;-73
2023/06/01 02:27:31;;;;;;;8.10;1.60;;;;;;;12.57;92.17;101330.13;5036707;28;20952;-73
2023/06/01 02:29:58;;;;;;;5.00;1.53;;;;;;;12.68;91.50;101328.06;5036739;28;20533;-73
2023/06/01 02:32:25;;;;;;;6.70;1.73;;;;;;;12.81;91.62;101328.13;5036683;28;20599;-73
2023/06/01 02:34:51;;;;;;;5.43;1.67;;;;;;;12.79;92.03;101327.63;5036251;28;20467;-73
2023/06/01 02:37:19;;;;;;;7.43;1.90;;;;;;;12.78;92.49;101319.75;5036256;28;20478;-73
2023/06/01 02:39:47;;;;;;;12.00;1.87;;;;;;;12.78;92.70;101325.19;5036313;28;20447;-73
2023/06/01 02:42:13;;;;;;;6.50;2.30;;;;;;;12.82;92.45;101329.72;5036495;28;20877;-73
2023/06/01 02:44:40;;;;;;;7.00;1.73;;;;;;;12.82;93.60;101324.28;5036400;28;20467;-73
2023/06/01 02:47:07;;;;;;;5.53;1.70;;;;;;;12.81;91.51;101330.84;5036294;28;20493;-73
2023/06/01 02:49:34;;;;;;;6.60;2.30;;;;;;;12.83;91.41;101322.38;5036379;28;20522;-73
2023/06/01 02:52:01;;;;;;;5.50;1.23;;;;;;;12.83;92.34;101327.81;5036290;28;20449;-73
2023/06/01 02:54:29;;;;;;;5.83;1.70;;;;;;;12.78;92.83;101317.84;5035876;28;21028;-73
2023/06/01 02:56:55;;;;;;;8.50;2.63;;;;;;;12.81;93.01;101316.44;5036237;28;20439;-73
2023/06/01 02:59:22;;;;;;;11.27;1.93;;;;;;;12.81;94.10;101317.25;5036185;28;20450;-73
2023/06/01 03:01:48;;;;;;;6.17;2.10;;;;;;;12.81;95.30;101311.00;5036151;28;20439;-73
2023/06/01 03:04:15;;;;;;;5.67;1.73;;;;;;;12.77;96.26;101318.13;5035623;28;20501;-72
2023/06/01 03:06:43;;;;;;;7.60;2.80;;;;;;;12.79;96.59;101315.91;5035619;28;20929;-73
2023/06/01 03:09:12;;;;;;;8.60;2.97;;;;;;;12.83;96.90;101312.31;5036237;28;20447;-73
2023/06/01 03:11:41;;;;;;;7.27;2.50;;;;;;;12.92;96.92;101308.91;5035982;28;20447;-73
2023/06/01 03:14:08;;;;;;;13.23;2.63;;;;;;;12.85;97.58;101314.75;5034979;28;20546;-73
2023/06/01 03:16:34;;;;;;;7.23;2.57;;;;;;;12.85;97.79;101312.03;5035807;28;20439;-73
2023/06/01 03:19:01;;;;;;;11.17;2.97;;;;;;;12.91;97.49;101315.44;5035517;28;20443;-72
2023/06/01 03:21:28;;;;;;;13.67;3.37;;;;;;;12.91;97.90;101318.16;5035706;28;20443;-72
2023/06/01 03:23:55;;;;;;;7.50;2.60;;;;;;;12.93;97.79;101315.97;5035376;28;20979;-74
2023/06/01 03:26:21;;;;;;;9.03;3.23;;;;;;;12.92;98.04;101320.59;5035589;28;20489;-73
2023/06/01 03:28:49;;;;;;;9.10;2.33;;;;;;;12.87;98.41;101329.63;5035824;28;20796;-75
2023/06/01 03:31:16;;;;;;;18.00;3.00;;;;;;;12.89;98.60;101326.63;5035566;28;20493;-73
2023/06/01 03:33:43;;;;;;;10.03;2.87;;;;;;;12.91;98.46;101326.31;5035183;28;21030;-73
2023/06/01 03:36:09;;;;;;;8.33;2.50;;;;;;;12.95;98.29;101324.63;5035183;28;20830;-73
2023/06/01 03:38:36;;;;;;;10.30;2.60;;;;;;;12.96;97.89;101332.47;5035150;28;20958;-73
2023/06/01 03:41:02;;;;;;;7.70;2.63;;;;;;;12.96;97.99;101331.69;5035033;28;20447;-73
2023/06/01 03:43:29;;;;;;;11.47;3.20;;;;;;;12.94;98.94;101331.19;5035508;28;20470;-73
2023/06/01 03:45:57;;;;;;;9.37;3.10;;;;;;;12.97;98.71;101328.69;5035030;28;20936;-72
2023/06/01 03:48:24;;;;;;;7.77;3.20;;;;;;;12.96;98.42;101332.47;5034919;28;20488;-73
2023/06/01 03:50:51;;;;;;;10.37;3.43;;;;;;;12.99;98.13;101333.81;5035278;28;20451;-72
2023/06/01 03:53:17;;;;;;;9.37;3.07;;;;;;;12.97;98.56;101333.28;5034807;28;20967;-73
2023/06/01 03:55:44;;;;;;;11.57;3.60;;;;;;;12.94;98.79;101328.47;5035136;28;20444;-73
2023/06/01 03:58:11;;;;;;;9.20;3.10;;;;;;;12.93;98.92;101335.00;5035035;28;20447;-73
2023/06/01 04:00:37;;;;;;;12.33;4.37;;;;;;;12.94;99.53;101328.47;5035012;28;20449;-72
2023/06/01 04:03:07;;;;;;;10.97;4.00;;;;;;;13.03;99.46;101332.91;5034669;28;20982;-73
2023/06/01 04:05:36;;;;;;;8.80;3.63;;;;;;;13.15;98.47;101329.72;5034890;28;20539;-73
2023/06/01 04:08:02;;;;;;;11.50;3.60;;;;;;;13.11;98.74;101324.06;5034980;28;20573;-73
2023/06/01 04:10:29;;;;;;;13.90;4.27;;;;;;;13.14;98.14;101319.91;5034801;28;20535;-73
2023/06/01 04:12:55;;;;;;;13.90;4.40;;;;;;;13.03;99.15;101326.66;5034644;28;20447;-73
2023/06/01 04:15:23;;;;;;;10.27;4.13;;;;;;;13.02;99.12;101331.31;5034656;28;20467;-74
2023/06/01 04:17:50;;;;;;;10.27;5.17;;;;;;;12.99;99.12;101329.16;5034677;28;20533;-73
2023/06/01 04:20:18;;;;;;;10.40;4.40;;;;;;;12.92;99.27;101342.34;5034285;28;20526;-73
2023/06/01 04:22:46;;;;;;;10.60;4.80;;;;;;;12.92;98.96;101336.91;5034530;28;20443;-73
2023/06/01 04:25:17;;;;;;;9.93;4.83;;;;;;;12.91;98.95;101339.94;5033858;28;20550;-73
2023/06/01 04:27:45;;;;;;;15.80;4.50;;;;;;;12.79;99.48;101343.94;5034024;28;20514;-73
2023/06/01 04:30:13;;;;;;;11.57;5.40;;;;;;;12.73;100.00;101342.38;5034476;28;20447;-73
2023/06/01 04:32:43;;;;;;;20.63;5.03;;;;;;;12.67;100.00;101351.72;5034403;28;20451;-72
2023/06/01 04:35:11;;;;;;;12.93;5.53;;;;;;;12.69;100.00;101344.06;5034263;28;20517;-72
2023/06/01 04:37:40;;;;;;;10.90;5.53;;;;;;;12.78;100.00;101344.22;5034210;28;20527;-72
2023/06/01 04:40:09;;;;;;;13.23;4.40;;;;;;;12.61;100.00;101352.91;5033994;28;20435;-73
2023/06/01 04:42:36;;;;;;;17.30;4.77;;;;;;;12.63;100.00;101350.72;5034169;28;20447;-72
2023/06/01 04:45:04;;;;;;;13.93;4.67;;;;;;;12.58;100.00;101350.78;5034085;28;20463;-70
2023/06/01 04:47:31;;;;;;;21.50;5.40;;;;;;;12.56;100.00;101350.25;5034281;28;20483;-70
2023/06/01 04:49:58;;;;;;;11.10;4.40;;;;;;;12.50;100.00;101346.81;5033779;28;20811;-69
2023/06/01 04:52:24;;;;;;;10.33;3.97;;;;;;;12.57;100.00;101346.44;5034054;28;20443;-74
2023/06/01 04:54:52;;;;;;;9.90;4.53;;;;;;;12.67;100.00;101351.72;5033832;28;20910;-71
2023/06/01 04:57:19;;;;;;;9.77;3.97;;;;;;;12.65;100.00;101350.41;5033965;28;20435;-71
2023/06/01 04:59:46;;;;;;;10.33;4.00;;;;;;;12.59;100.00;101345.06;5033899;28;20451;-71
2023/06/01 05:02:13;;;;;;;12.13;4.20;;;;;;;12.65;100.00;101347.69;5033532;28;20939;-71
2023/06/01 05:04:39;;;;;;;10.93;3.90;;;;;;;12.59;99.66;101350.50;5033525;28;20467;-71
2023/06/01 05:07:06;;;;;;;8.23;3.13;;;;;;;12.65;98.09;101348.50;5033705;28;20578;-71
2023/06/01 05:09:33;;;;;;;12.37;3.90;;;;;;;12.67;97.64;101342.78;5033699;28;20450;-71
2023/06/01 05:12:01;;;;;;;11.13;4.50;;;;;;;12.64;98.15;101330.56;5033320;28;20944;-71
2023/06/01 05:14:28;;;;;;;15.30;4.60;;;;;;;12.68;97.72;101334.31;5033155;28;20529;-71
2023/06/01 05:16:55;;;;;;;11.00;4.43;;;;;;;12.80;95.66;101328.44;5033671;28;20442;-70
2023/06/01 05:19:21;;;;;;;11.70;3.83;;;;;;;12.77;96.17;101327.09;5033817;28;20447;-71
2023/06/01 05:21:48;;;;;;;10.70;3.80;;;;;;;12.73;95.72;101331.50;5033486;28;20449;-70
2023/06/01 05:24:15;;;;;;;9.90;3.53;;;;;;;12.91;94.65;101335.28;5033074;28;20467;-71
2023/06/01 05:26:41;;;;;;;8.97;3.30;;;;;;;12.94;94.89;101334.72;5033676;28;20470;-71
2023/06/01 05:29:09;;;;;;;11.83;3.67;;;;;;;13.03;93.36;101337.53;5033151;28;21013;-71
2023/06/01 05:31:36;;;;;;;9.23;3.60;;;;;;;12.99;92.62;101331.09;5033398;28;20447;-70
2023/06/01 05:34:03;;;;;;;8.97;3.13;;;;;;;12.91;93.71;101329.06;5033267;28;20463;-70
2023/06/01 05:36:31;;;;;;;8.40;3.60;;;;;;;12.98;92.32;101343.88;5033482;28;20469;-70
2023/06/01 05:38:58;;;;;;;14.50;4.23;;;;;;;13.09;91.03;101333.63;5033046;28;20450;-70
2023/06/01 05:41:25;;;;;;;6.37;2.50;;;;;;;13.19;90.79;101344.31;5033287;28;20455;-70
2023/06/01 05:43:52;;;;;;;9.07;3.70;;;;;;;13.22;89.41;101340.19;5033197;28;20878;-70
2023/06/01 05:46:20;;;;;;;9.23;2.73;;;;;;;13.20;90.34;101348.66;5032877;28;20980;-70
2023/06/01 05:48:47;;;;;;;8.57;2.70;;;;;;;13.21;90.34;101341.31;5033325;28;20498;-70
2023/06/01 05:51:14;;;;;;;10.33;2.57;;;;;;;13.13;90.56;101348.25;5033145;28;20534;-71
2023/06/01 05:53:42;;;;;;;8.00;2.90;;;;;;;13.14;89.86;101358.00;5033293;28;20557;-68
2023/06/01 05:56:08;;;;;;;8.80;3.30;;;;;;;13.21;88.35;101360.34;5033148;28;20445;-70
2023/06/01 05:58:35;;;;;;;12.50;3.37;;;;;;;13.18;88.49;101360.94;5032803;28;20474;-70
2023/06/01 06:01:02;;;;;;;9.80;3.03;;;;;;;13.14;89.60;101358.00;5033140;28;20501;-72
2023/06/01 06:03:30;;;;;;;8.60;2.60;;;;;;;13.20;89.28;101359.53;5032710;28;20969;-72
2023/06/01 06:05:56;;;;;;;18.00;2.77;;;;;;;13.23;88.76;101358.97;5063099;22;20567;-81
2023/06/01 06:08:23;;;;;;;8.83;3.83;;;;;;;13.34;87.95;101368.56;5060628;28;20482;-79
2023/06/01 06:10:50;;;;;;;11.63;3.33;;;;;;;13.36;87.42;101351.94;5061272;28;20482;-79
2023/06/01 06:13:16;;;;;;;13.63;3.13;;;;;;;13.27;87.61;101359.97;5057826;28;20520;-78
2023/06/01 06:15:43;;;;;;;10.40;3.40;;;;;;;13.41;87.05;101351.03;5063702;22;20585;-78
2023/06/01 06:18:22;;;;;;;9.97;3.03;;;;;;;13.44;85.67;101353.16;5055739;28;20537;-77
2023/06/01 06:20:50;;;;;;;9.67;3.50;;;;;;;13.56;85.16;101345.31;5054746;28;20450;-80
2023/06/01 06:23:16;;;;;;;10.37;4.10;;;;;;;13.58;84.09;101353.97;5054347;28;20453;-80
2023/06/01 06:25:43;;;;;;;15.53;3.63;;;;;;;13.37;85.25;101350.84;5054685;28;20493;-78
2023/06/01 06:28:10;;;;;;;9.70;2.90;;;;;;;13.38;84.93;101350.53;5056124;28;20616;-79
2023/06/01 06:30:37;;;;;;;7.57;3.07;;;;;;;13.42;85.21;101349.94;5055892;28;20976;-84
2023/06/01 06:33:04;;;;;;;9.83;2.90;;;;;;;13.49;83.81;101345.69;5056152;28;20456;-80
2023/06/01 06:35:30;;;;;;;10.87;2.90;;;;;;;13.37;84.18;101354.38;5055742;28;20488;-81
2023/06/01 06:37:58;;;;;;;7.33;2.53;;;;;;;13.38;83.89;101353.25;5055256;28;20534;-82
2023/06/01 06:40:25;;;;;;;7.47;2.63;;;;;;;13.37;83.99;101359.00;5055321;28;20452;-80
2023/06/01 06:42:52;;;;;;;10.03;3.97;;;;;;;13.37;84.68;101359.00;5055398;28;20442;-82
2023/06/01 06:45:19;;;;;;;18.77;3.27;;;;;;;13.41;84.19;101359.19;5055529;28;20506;-81
2023/06/01 06:47:46;;;;;;;8.93;2.77;;;;;;;13.46;83.09;101345.47;5056508;28;20563;-81
2023/06/01 06:50:13;;;;;;;10.03;2.30;;;;;;;13.71;83.28;101364.03;5058873;28;20446;-81
2023/06/01 06:52:40;;;;;;;7.57;2.73;;;;;;;13.75;82.65;101356.09;5062163;28;20449;-80
2023/06/01 06:55:09;;;;;;;9.60;3.50;;;;;;;13.42;83.49;101349.94;5058654;28;20492;-81
2023/06/01 06:57:36;;;;;;;7.60;2.60;;;;;;;13.38;84.38;101345.09;5058526;28;20481;-79
2023/06/01 07:00:05;;;;;;;19.50;3.47;;;;;;;13.53;84.66;101351.34;5058545;28;20482;-82
2023/06/01 07:02:32;;;;;;;7.80;2.87;;;;;;;13.59;83.85;101345.50;5057334;28;20934;-81
2023/06/01 07:04:58;;;;;;;7.80;3.00;;;;;;;13.61;83.21;101356.09;5058406;28;21032;-80
2023/06/01 07:07:26;;;;;;;11.60;3.60;;;;;;;13.75;83.13;101350.63;5058215;28;20457;-80
2023/06/01 07:09:53;;;;;;;10.77;3.43;;;;;;;13.88;82.86;101350.63;5058772;28;20453;-79
2023/06/01 07:12:21;;;;;;;11.40;2.80;;;;;;;14.21;81.56;101346.94;5057751;28;20453;-79
2023/06/01 07:14:47;;;;;;;26.10;3.70;;;;;;;14.39;80.02;101346.78;5057175;28;20462;-82
2023/06/01 07:17:14;;;;;;;9.43;3.17;;;;;;;14.37;80.17;101348.19;5057944;28;20927;-81
2023/06/01 07:19:41;;;;;;;7.90;2.90;;;;;;;14.42;78.71;101350.00;5058406;28;20522;-80
2023/06/01 07:22:07;;;;;;;11.97;3.20;;;;;;;14.36;79.35;101350.13;5058107;28;20470;-81
2023/06/01 07:24:35;;;;;;;7.40;2.60;;;;;;;14.44;80.30;101347.78;5058065;28;20494;-81
2023/06/01 07:27:01;;;;;;;9.50;3.40;;;;;;;14.69;78.52;101349.94;5057718;28;20504;-82
2023/06/01 07:29:30;;;;;;;9.63;3.33;;;;;;;14.86;76.55;101354.69;5057709;28;20574;-80
2023/06/01 07:31:57;;;;;;;8.37;3.03;;;;;;;14.86;75.85;101354.69;5058211;28;20507;-80
2023/06/01 07:34:24;;;;;;;7.03;2.60;;;;;;;14.92;75.29;101353.47;5057956;28;20488;-80
2023/06/01 07:36:51;;;;;;;10.00;2.83;;;;;;;14.91;76.14;101345.59;5057682;28;20450;-81
2023/06/01 07:39:19;;;;;;;10.33;3.30;;;;;;;15.00;76.05;101344.50;5057937;28;20446;-79
2023/06/01 07:41:46;;;;;;;7.80;3.03;;;;;;;15.06;74.69;101343.28;5057147;28;20855;-80
2023/06/01 07:44:13;;;;;;;7.70;2.87;;;;;;;14.94;74.63;101345.78;5056620;28;20887;-78
2023/06/01 07:46:41;;;;;;;16.53;3.90;;;;;;;14.77;75.63;101341.00;5057080;28;20446;-79
2023/06/01 07:49:12;;;;;;;7.10;2.67;;;;;;;14.88;75.52;101341.56;5057842;28;20549;-81
2023/06/01 07:51:39;;;;;;;8.17;3.10;;;;;;;14.87;76.43;101335.31;5057599;28;20438;-80
2023/06/01 07:54:07;;;;;;;11.43;3.03;;;;;;;15.01;74.77;101335.22;5056503;28;20476;-80
2023/06/01 07:56:34;;;;;;;9.03;3.07;;;;;;;14.94;75.39;101332.13;5056886;28;20457;-81
2023/06/01 07:59:01;;;;;;;8.30;2.67;;;;;;;14.89;75.25;101326.81;5057387;28;20446;-83
2023/06/01 08:01:28;;;;;;;7.67;3.20;;;;;;;14.74;75.39;101332.63;5056250;28;20434;-82
2023/06/01 08:03:56;;;;;;;8.77;2.60;;;;;;;14.84;76.09;101335.94;5056955;28;20446;-79
2023/06/01 08:06:23;;;;;;;7.33;2.40;;;;;;;14.85;76.08;101332.06;5056583;28;20493;-79
2023/06/01 08:08:51;;;;;;;11.03;3.13;;;;;;;14.93;75.23;101322.34;5058155;28;20555;-80
2023/06/01 08:11:21;;;;;;;9.93;2.80;;;;;;;15.02;76.47;101320.47;5058489;28;20813;-82
2023/06/01 08:13:52;;;;;;;10.33;3.00;;;;;;;15.10;74.76;101329.81;5058961;28;20423;-82
2023/06/01 08:16:19;;;;;;;9.43;3.67;;;;;;;15.18;74.14;101314.59;5060308;28;20791;-80
2023/06/01 08:19:27;;;;;;;9.73;2.97;;;;;;;15.23;73.70;101320.75;5061279;28;20449;-80
2023/06/01 08:22:19;;;;;;;9.30;3.70;;;;;;;15.28;73.88;101312.41;5057714;28;20461;-80
2023/06/01 08:25:13;;;;;;;8.50;2.20;;;;;;;15.35;73.24;101312.75;5059268;28;20878;-82
2023/06/01 08:28:02;;;;;;;10.90;3.13;;;;;;;15.45;74.79;101321.78;5060159;28;20487;-80
2023/06/01 08:30:45;;;;;;;12.60;2.80;;;;;;;15.50;73.50;101303.34;5060436;28;20447;-81
2023/06/01 08:33:15;;;;;;;8.60;2.70;;;;;;;15.71;72.33;101305.50;5059224;28;20431;-80
2023/06/01 08:36:20;;;;;;;;;;;;;;;;;;;;;
2023/06/01 08:45:12;;;;;;;9.53;2.73;;;;;;;15.84;73.49;101301.81;5039635;28;20489;-83
2023/06/01 08:47:42;;;;;;;8.03;2.60;;;;;;;15.89;73.52;101294.31;5057586;28;20484;-84
2023/06/01 08:50:24;;;;;;;8.90;2.80;;;;;;;16.06;72.13;101292.69;5056982;28;20500;-82
2023/06/01 08:52:55;;;;;;;6.00;2.10;;;;;;;16.10;70.93;101285.47;5059691;28;20438;-83
2023/06/01 08:55:22;;;;;;;7.03;2.30;;;;;;;16.24;74.14;101296.25;5058093;28;20470;-82
2023/06/01 08:57:50;;;;;;;7.23;3.17;;;;;;;16.36;70.19;101291.75;5057388;28;20823;-81
2023/06/01 09:00:18;;;;;;;8.90;2.90;;;;;;;16.48;69.65;101309.44;5059427;28;20441;-77
2023/06/01 09:02:45;;;;;;;10.37;3.03;;;;;;;16.59;67.38;101295.09;5058199;28;20473;-81
2023/06/01 09:05:13;;;;;;;12.53;3.57;;;;;;;16.62;68.39;101294.44;5060074;28;20553;-84
2023/06/01 09:07:40;;;;;;;7.07;2.97;;;;;;;16.81;66.68;101296.84;5058229;28;20482;-82
2023/06/01 09:12:53;;;;;;;9.80;3.27;;;;;;;16.65;67.17;101285.59;5057749;28;20966;-79
2023/06/01 09:15:21;;;;;;;12.07;3.10;;;;;;;16.81;66.55;101296.03;5058482;28;20982;-82
2023/06/01 09:17:49;;;;;;;9.03;3.40;;;;;;;16.63;66.40;101290.56;5059229;28;20554;-80
2023/06/01 09:20:24;;;;;;;9.77;4.03;;;;;;;16.68;69.35;101284.13;5057867;28;20477;-77
2023/06/01 09:22:51;;;;;;;9.33;3.20;;;;;;;16.77;65.80;101284.16;5058126;28;20461;-81
2023/06/01 09:25:23;;;;;;;10.87;4.13;;;;;;;16.94;66.01;101270.41;5058548;28;20538;-81
2023/06/01 09:27:52;;;;;;;9.77;4.47;;;;;;;17.03;65.86;101278.59;5057893;28;20461;-78
2023/06/01 09:30:23;;;;;;;9.50;3.80;;;;;;;17.13;66.67;101270.00;5056887;28;20512;-78
2023/06/01 09:32:52;;;;;;;14.80;5.47;;;;;;;17.20;64.19;101269.53;5056411;28;20770;-82
2023/06/01 09:35:38;;;;;;;10.40;4.00;;;;;;;17.34;63.64;101273.63;5056455;28;21041;-79
2023/06/01 09:38:06;;;;;;;12.90;5.10;;;;;;;17.41;63.52;101264.91;5056808;28;20880;-81
2023/06/01 09:40:33;;;;;;;10.90;4.57;;;;;;;17.48;63.71;101267.13;5055815;28;20461;-80
2023/06/01 09:43:02;;;;;;;11.03;4.57;;;;;;;17.62;62.36;101264.97;5057159;28;20481;-81
2023/06/01 09:45:32;;;;;;;19.33;4.00;;;;;;;17.65;63.03;101264.28;5057251;28;20482;-80
2023/06/01 09:48:18;;;;;;;12.60;4.50;;;;;;;17.68;62.35;101257.34;5056424;28;20415;-82
2023/06/01 09:50:45;;;;;;;10.70;3.90;;;;;;;17.81;61.44;101254.38;5058018;28;20826;-79
2023/06/01 09:53:12;;;;;;;12.37;4.50;;;;;;;17.87;62.56;101260.44;5056775;28;20442;-80
2023/06/01 09:55:58;;;;;;;11.63;4.53;;;;;;;18.11;61.42;101259.81;5057196;28;20474;-80
2023/06/01 09:58:25;;;;;;;9.83;3.63;;;;;;;18.12;61.04;101261.41;5061724;28;20430;-80
2023/06/01 10:00:53;;;;;;;11.47;4.60;;;;;;;18.22;59.65;101268.41;5057585;28;20474;-80
2023/06/01 10:03:21;;;;;;;10.53;4.90;;;;;;;18.18;59.10;101248.28;5057918;28;20522;-80
2023/06/01 10:05:48;;;;;;;11.23;4.67;;;;;;;18.21;58.18;101250.34;5056721;28;20561;-80
2023/06/01 10:08:18;;;;;;;15.33;5.63;;;;;;;18.19;59.51;101249.88;5056566;28;20815;-79
2023/06/01 10:10:46;;;;;;;11.77;4.80;;;;;;;18.18;60.41;101248.28;5055259;28;20446;-80
2023/06/01 10:13:13;;;;;;;12.33;4.57;;;;;;;18.32;59.35;101248.78;5054822;28;20449;-79
2023/06/01 10:15:40;;;;;;;14.00;4.80;;;;;;;18.47;60.49;101244.63;5055470;28;20923;-80
2023/06/01 10:18:08;;;;;;;11.10;4.03;;;;;;;18.63;59.45;101243.63;5055529;28;20874;-81
2023/06/01 10:20:36;;;;;;;12.63;5.07;;;;;;;18.72;58.93;101240.81;5057452;28;20473;-80
2023/06/01 10:23:04;;;;;;;10.10;4.37;;;;;;;18.79;60.51;101241.06;5056608;28;20930;-80
2023/06/01 10:25:42;;;;;;;13.10;4.67;;;;;;;18.98;57.62;101235.03;5059830;28;20498;-83
2023/06/01 10:28:12;;;;;;;10.73;4.50;;;;;;;19.02;58.43;101246.13;5060321;28;20768;-84
2023/06/01 10:30:39;;;;;;;10.90;4.90;;;;;;;19.03;58.83;101245.78;5059545;28;20485;-82
2023/06/01 10:33:07;;;;;;;11.10;4.27;;;;;;;18.76;60.92;101230.75;5061238;28;20529;-80
2023/06/01 10:35:53;;;;;;;9.97;4.37;;;;;;;18.86;59.83;101229.53;5061344;28;20501;-80
2023/06/01 10:38:24;;;;;;;15.93;5.60;;;;;;;18.94;59.22;101239.59;5061132;28;20468;-81
2023/06/01 10:40:51;;;;;;;13.37;4.37;;;;;;;19.06;58.58;101236.06;5060832;28;20949;-80
2023/06/01 10:43:41;;;;;;;13.90;5.10;;;;;;;19.25;58.55;101225.31;5060722;28;20852;-81
2023/06/01 10:46:35;;;;;;;15.33;5.20;;;;;;;19.40;58.02;101238.34;5059663;28;21024;-80
2023/06/01 10:49:05;;;;;;;9.90;4.47;;;;;;;19.49;57.10;101226.44;5061137;28;20499;-79
2023/06/01 10:51:32;;;;;;;12.40;4.20;;;;;;;19.54;56.29;101215.22;5060396;28;20446;-80
2023/06/01 10:54:24;;;;;;;8.70;3.80;;;;;;;19.49;59.55;101218.19;5061886;28;20496;-80
2023/06/01 10:57:18;;;;;;;10.83;3.70;;;;;;;19.73;59.01;101211.88;5060622;28;20431;-81
2023/06/01 11:00:07;;;;;;;9.27;3.60;;;;;;;20.03;57.65;101218.66;5058495;28;20504;-81
2023/06/01 11:02:42;;;;;;;15.80;4.70;;;;;;;19.99;56.03;101205.94;5060322;28;20911;-79
2023/06/01 11:05:43;;;;;;;9.40;3.80;;;;;;;20.06;56.10;101197.91;5059249;28;20469;-80
2023/06/01 11:08:55;;;;;;;11.33;3.90;;;;;;;20.29;55.82;101196.19;5059577;28;20458;-81
2023/06/01 11:11:46;;;;;;;13.30;3.90;;;;;;;20.59;53.88;101195.81;5059185;28;20417;-82
2023/06/01 11:14:21;;;;;;;13.53;3.90;;;;;;;20.59;54.82;101198.56;5058843;28;20489;-80
2023/06/01 11:22:54;;;;;;;8.83;3.17;;;;;;;21.81;52.69;101203.00;4993123;28;20560;-79
2023/06/01 11:25:29;;;;;;;7.83;3.03;;;;;;;22.07;49.95;101193.28;4996539;28;20476;-78
2023/06/01 11:28:11;;;;;;;6.90;2.80;;;;;;;22.33;48.94;101187.91;4996132;28;20441;-77
2023/06/01 11:30:43;;;;;;;12.20;3.77;;;;;;;22.57;48.09;101197.00;4997740;28;20488;-77
2023/06/01 11:33:26;;;;;;;8.93;3.67;;;;;;;23.21;47.69;101200.06;4996720;28;20444;-78
2023/06/01 11:36:04;;;;;;;14.20;2.90;;;;;;;23.26;49.20;101189.47;4997063;28;20564;-81
2023/06/01 11:38:37;;;;;;;7.77;2.87;;;;;;;23.72;45.93;101186.53;4997293;28;20498;-82
2023/06/01 11:41:04;;;;;;;11.73;2.77;;;;;;;23.67;44.88;101193.22;4997245;28;20436;-81
2023/06/01 11:43:34;;;;;;;8.53;3.47;;;;;;;23.42;45.40;101192.88;4997193;28;20453;-80
2023/06/01 11:46:16;;;;;;;7.73;3.03;;;;;;;23.70;44.84;101185.34;4997424;28;21022;-81
2023/06/01 11:49:05;;;;;;;7.23;2.40;;;;;;;24.20;45.82;101178.41;4997201;28;20614;-79
2023/06/01 11:52:00;;;;;;;11.20;3.50;;;;;;;24.51;42.95;101179.94;4997943;28;20472;-83